Time;durP1;ratioP1;P1;durP2;ratioP2;P2;SDS_P1;SDS_P2;PMS_P1;PMS_P2;Temp;Humidity;BMP_temperature;BMP_pressure;BME280_temperature;BME280_humidity;BME280_pressure;Samples;Min_cycle;Max_cycle;Signal;HPM_P1;HPM_P2
2023/03/28 00:02:43;;;;;;;3.40;3.10;;;;;;;0.00;100.00;59042.03;10409591;28;20490;-73
2023/03/28 00:07:43;;;;;;;3.50;2.60;;;;;;;0.00;100.00;59042.03;10396721;28;20052;-73
2023/03/28 00:12:44;;;;;;;3.17;2.37;;;;;;;0.00;100.00;59042.03;10398195;28;20500;-73
2023/03/28 00:17:45;;;;;;;3.75;3.10;;;;;;;0.00;100.00;59042.03;10407414;28;20267;-73
2023/03/28 00:22:46;;;;;;;4.28;2.70;;;;;;;0.00;100.00;59042.03;10395845;28;20129;-73
2023/03/28 00:27:46;;;;;;;3.30;2.67;;;;;;;0.00;100.00;59042.03;10386518;28;20030;-73
2023/03/28 00:32:47;;;;;;;2.13;1.57;;;;;;;0.00;100.00;59042.03;10407079;28;20025;-73
2023/03/28 00:37:50;;;;;;;2.80;2.43;;;;;;;0.00;100.00;59042.03;10395423;28;20268;-73
2023/03/28 00:42:51;;;;;;;4.53;3.17;;;;;;;0.00;100.00;59042.03;10407998;28;20276;-72
2023/03/28 00:48:00;;;;;;;3.63;3.25;;;;;;;0.00;100.00;59042.03;10400553;28;20041;-73
2023/03/28 00:53:05;;;;;;;5.13;3.13;;;;;;;0.00;100.00;59042.03;10406369;28;20031;-72
2023/03/28 00:58:10;;;;;;;4.18;3.33;;;;;;;0.00;100.00;59042.03;10400330;28;20121;-72
2023/03/28 01:03:12;;;;;;;7.78;5.43;;;;;;;0.00;100.00;59042.03;10404128;28;20041;-73
2023/03/28 01:08:19;;;;;;;9.38;5.88;;;;;;;0.00;100.00;59042.03;10388132;28;20040;-73
2023/03/28 01:13:25;;;;;;;4.70;3.58;;;;;;;0.00;100.00;59042.03;10402883;28;20498;-73
2023/03/28 01:18:25;;;;;;;9.18;4.78;;;;;;;0.00;100.00;59042.03;10396109;28;20420;-73
2023/03/28 01:23:47;;;;;;;5.40;4.13;;;;;;;0.00;100.00;59042.03;10397580;28;20028;-72
2023/03/28 01:29:12;;;;;;;5.13;4.47;;;;;;;0.00;100.00;59042.03;10396544;28;20083;-73
2023/03/28 01:34:50;;;;;;;5.25;4.07;;;;;;;0.00;100.00;59042.03;10397337;28;20024;-73
2023/03/28 01:40:15;;;;;;;6.35;5.75;;;;;;;0.00;100.00;59042.03;10391152;28;20033;-73
2023/03/28 01:45:44;;;;;;;7.28;4.07;;;;;;;0.00;100.00;59042.03;10377496;28;20038;-72
2023/03/28 01:51:14;;;;;;;9.20;5.63;;;;;;;0.00;100.00;59042.03;10395557;28;20416;-73
2023/03/28 01:56:23;;;;;;;7.30;5.50;;;;;;;0.00;100.00;59042.03;10378901;28;20052;-73
2023/03/28 02:01:35;;;;;;;6.68;5.05;;;;;;;0.00;100.00;59042.03;10395044;28;20488;-73
2023/03/28 02:06:38;;;;;;;7.45;4.82;;;;;;;0.00;100.00;59042.03;10409642;28;20091;-72
2023/03/28 02:11:40;;;;;;;7.72;4.53;;;;;;;0.00;100.00;59042.03;10405687;28;20055;-74
2023/03/28 02:16:43;;;;;;;5.20;4.68;;;;;;;0.00;100.00;59042.03;10414442;28;20411;-73
2023/03/28 02:21:57;;;;;;;6.43;5.25;;;;;;;0.00;100.00;59042.03;10406039;28;20017;-73
2023/03/28 02:26:57;;;;;;;6.72;5.10;;;;;;;0.00;100.00;59042.03;10407855;28;20112;-73
2023/03/28 02:31:58;;;;;;;7.78;5.38;;;;;;;0.00;100.00;59042.03;10405475;28;20029;-73
2023/03/28 02:37:36;;;;;;;6.18;4.75;;;;;;;0.00;100.00;59042.03;10408098;28;20024;-74
2023/03/28 02:42:42;;;;;;;7.15;5.35;;;;;;;0.00;100.00;59042.03;10400298;28;20068;-73
2023/03/28 02:47:45;;;;;;;10.00;4.35;;;;;;;0.00;100.00;59042.03;10402031;28;20535;-73
2023/03/28 02:52:55;;;;;;;5.55;4.00;;;;;;;0.00;100.00;59042.03;10406393;28;20531;-73
2023/03/28 02:58:11;;;;;;;5.50;3.45;;;;;;;0.00;100.00;59042.03;10406250;28;20379;-73
2023/03/28 03:03:22;;;;;;;6.78;3.67;;;;;;;0.00;100.00;59042.03;10402838;28;20021;-73
2023/03/28 03:08:22;;;;;;;6.57;3.33;;;;;;;0.00;100.00;59042.03;10398814;28;20021;-73
2023/03/28 03:13:23;;;;;;;4.60;3.27;;;;;;;0.00;100.00;59042.03;10393744;28;20044;-73
2023/03/28 03:18:24;;;;;;;5.30;3.85;;;;;;;0.00;100.00;59042.03;10398927;28;20853;-74
2023/03/28 03:23:27;;;;;;;3.28;2.95;;;;;;;0.00;100.00;59042.03;10401118;28;20029;-74
2023/03/28 03:28:28;;;;;;;5.15;3.67;;;;;;;0.00;100.00;59042.03;10402176;28;20492;-73
2023/03/28 03:33:28;;;;;;;3.05;2.75;;;;;;;0.00;100.00;59042.03;10400294;28;20107;-74
2023/03/28 03:38:29;;;;;;;4.83;3.10;;;;;;;0.00;100.00;59042.03;10403248;28;20025;-73
2023/03/28 03:43:29;;;;;;;3.47;2.72;;;;;;;0.00;100.00;59042.03;10402805;28;20272;-73
2023/03/28 03:48:30;;;;;;;7.88;3.60;;;;;;;0.00;100.00;59042.03;10405431;28;20128;-73
2023/03/28 03:53:32;;;;;;;5.30;2.65;;;;;;;0.00;100.00;59042.03;10399168;28;20041;-73
2023/03/28 03:58:36;;;;;;;5.03;3.25;;;;;;;0.00;100.00;59042.03;10402398;28;20109;-72
2023/03/28 04:03:36;;;;;;;2.80;2.20;;;;;;;0.00;100.00;59042.03;10400171;28;20034;-75
2023/03/28 04:08:37;;;;;;;8.45;2.80;;;;;;;0.00;100.00;59042.03;10397139;28;20345;-73
2023/03/28 04:13:37;;;;;;;3.83;2.83;;;;;;;0.00;100.00;59042.03;10398813;28;20405;-73
2023/03/28 04:18:38;;;;;;;7.03;4.20;;;;;;;0.00;100.00;59042.03;10391280;28;20268;-73
2023/03/28 04:23:42;;;;;;;5.15;2.67;;;;;;;0.00;100.00;59042.03;10394789;28;20056;-73
2023/03/28 04:28:44;;;;;;;4.97;3.70;;;;;;;0.00;100.00;59042.03;10388188;28;20476;-74
2023/03/28 04:33:45;;;;;;;5.18;3.63;;;;;;;0.00;100.00;59042.03;10391766;28;20040;-73
2023/03/28 04:38:45;;;;;;;10.43;3.60;;;;;;;0.00;100.00;59042.03;10390886;28;20036;-75
2023/03/28 04:43:45;;;;;;;4.80;3.38;;;;;;;0.00;100.00;59042.03;10394939;28;20371;-75
2023/03/28 04:48:46;;;;;;;5.88;4.00;;;;;;;0.00;100.00;59042.03;10394743;28;20433;-75
2023/03/28 04:53:46;;;;;;;8.23;4.20;;;;;;;0.00;100.00;59042.03;10391227;28;20385;-74
2023/03/28 04:58:47;;;;;;;4.28;3.88;;;;;;;0.00;100.00;59042.03;10396263;28;20025;-73
2023/03/28 05:03:47;;;;;;;4.90;4.35;;;;;;;0.00;100.00;59042.03;10402415;28;20028;-75
2023/03/28 05:08:48;;;;;;;9.23;6.20;;;;;;;0.00;100.00;59042.03;10404389;28;20094;-75
2023/03/28 05:13:48;;;;;;;14.52;6.57;;;;;;;0.00;100.00;59042.03;10403268;28;20929;-75
2023/03/28 05:18:50;;;;;;;18.08;7.00;;;;;;;0.00;100.00;59042.03;10397312;28;20499;-74
2023/03/28 05:23:50;;;;;;;8.13;6.35;;;;;;;0.00;100.00;59042.03;10398311;28;20036;-75
2023/03/28 05:28:51;;;;;;;15.70;7.10;;;;;;;0.00;100.00;59042.03;10396090;28;20477;-75
2023/03/28 05:33:51;;;;;;;10.93;7.40;;;;;;;0.00;100.00;59042.03;10394808;28;20025;-73
2023/03/28 05:38:52;;;;;;;11.35;7.35;;;;;;;0.00;100.00;59042.03;10399037;28;20036;-75
2023/03/28 05:43:52;;;;;;;12.15;6.63;;;;;;;0.00;100.00;59042.03;10405926;28;20018;-74
2023/03/28 05:48:53;;;;;;;9.52;6.68;;;;;;;0.00;100.00;59042.03;10404034;28;20042;-74
2023/03/28 05:53:53;;;;;;;5.93;5.18;;;;;;;0.00;100.00;59042.03;10396013;28;20037;-75
2023/03/28 05:58:53;;;;;;;9.32;6.47;;;;;;;0.00;100.00;59042.03;10403963;28;20078;-73
2023/03/28 06:03:54;;;;;;;9.18;6.28;;;;;;;0.00;100.00;59042.03;10401486;28;20108;-74
2023/03/28 06:08:55;;;;;;;14.10;7.45;;;;;;;0.00;100.00;59042.03;10398881;28;20407;-74
2023/03/28 06:13:55;;;;;;;8.48;6.63;;;;;;;0.00;100.00;59042.03;10411383;28;20032;-74
2023/03/28 06:18:56;;;;;;;10.07;6.63;;;;;;;0.00;100.00;59042.03;10402169;28;20407;-74
2023/03/28 06:23:56;;;;;;;9.73;7.47;;;;;;;0.00;100.00;59042.03;10409522;28;20272;-74
2023/03/28 06:28:56;;;;;;;14.67;6.27;;;;;;;0.00;100.00;59042.03;10401613;28;20291;-74
2023/03/28 06:33:57;;;;;;;12.43;6.93;;;;;;;0.00;100.00;59042.03;10406203;28;20291;-74
2023/03/28 06:38:57;;;;;;;7.93;5.28;;;;;;;0.00;100.00;59042.03;10401936;28;20459;-75
2023/03/28 06:43:58;;;;;;;13.25;6.20;;;;;;;0.00;100.00;59042.03;10404039;28;20028;-74
2023/03/28 06:48:58;;;;;;;7.47;5.93;;;;;;;0.00;100.00;59042.03;10401339;28;20095;-74
2023/03/28 06:53:59;;;;;;;13.35;7.10;;;;;;;0.00;100.00;59042.03;10406510;28;20026;-74
2023/03/28 06:58:59;;;;;;;9.88;6.65;;;;;;;0.00;100.00;59042.03;10402211;28;20025;-74
2023/03/28 07:04:01;;;;;;;10.07;6.03;;;;;;;0.00;100.00;59042.03;10400516;28;20049;-74
2023/03/28 07:09:02;;;;;;;11.90;7.25;;;;;;;0.00;100.00;59042.03;10403832;28;20017;-74
2023/03/28 07:14:02;;;;;;;9.35;6.60;;;;;;;0.00;100.00;59042.03;10402647;28;20099;-74
2023/03/28 07:19:03;;;;;;;12.35;7.43;;;;;;;0.00;100.00;59042.03;10404382;28;20709;-74
2023/03/28 07:24:03;;;;;;;9.27;7.22;;;;;;;0.00;100.00;59042.03;10404274;28;20039;-75
2023/03/28 07:29:04;;;;;;;8.90;6.68;;;;;;;0.00;100.00;59042.03;10397970;28;20035;-75
2023/03/28 07:34:04;;;;;;;12.43;7.50;;;;;;;0.00;100.00;59042.03;10402098;28;20368;-75
2023/03/28 07:39:05;;;;;;;8.73;7.03;;;;;;;0.00;100.00;59042.03;10401421;28;20020;-74
2023/03/28 07:44:05;;;;;;;7.60;6.20;;;;;;;0.00;100.00;59042.03;10389135;28;20377;-75
2023/03/28 07:49:07;;;;;;;11.00;6.13;;;;;;;0.00;100.00;59042.03;10403015;28;20130;-74
2023/03/28 07:54:16;;;;;;;10.15;7.90;;;;;;;0.00;100.00;59042.03;10399906;28;20107;-76
2023/03/28 07:59:16;;;;;;;6.43;5.82;;;;;;;0.00;100.00;59042.03;10396628;28;20029;-74
2023/03/28 08:04:17;;;;;;;7.40;5.43;;;;;;;0.00;100.00;59042.03;10404891;28;20021;-74
2023/03/28 08:09:18;;;;;;;8.05;6.07;;;;;;;0.00;100.00;59042.03;10404404;28;20319;-73
2023/03/28 08:14:19;;;;;;;8.70;5.57;;;;;;;0.00;100.00;59042.03;10397949;28;20124;-74
2023/03/28 08:19:19;;;;;;;9.25;6.05;;;;;;;0.00;100.00;59042.03;10404787;28;20079;-75
2023/03/28 08:24:20;;;;;;;10.85;5.85;;;;;;;0.00;100.00;59042.03;10398671;28;20031;-74
2023/03/28 08:29:20;;;;;;;8.45;6.15;;;;;;;0.00;100.00;59042.03;10399938;28;20041;-74
2023/03/28 08:34:21;;;;;;;8.38;5.90;;;;;;;0.00;100.00;59042.03;10399498;28;20025;-75
2023/03/28 08:39:22;;;;;;;7.53;5.73;;;;;;;0.00;100.00;59042.03;10403662;28;20054;-76
2023/03/28 08:44:44;;;;;;;5.20;4.32;;;;;;;0.00;100.00;59042.03;10400824;28;20274;-74
2023/03/28 08:49:53;;;;;;;6.75;6.22;;;;;;;0.00;100.00;59042.03;10396132;28;20428;-74
2023/03/28 08:55:00;;;;;;;8.98;6.28;;;;;;;0.00;100.00;59042.03;10394367;28;20037;-74
2023/03/28 09:00:13;;;;;;;11.80;5.75;;;;;;;0.00;100.00;59042.03;10399532;28;20024;-74
2023/03/28 09:05:16;;;;;;;10.57;5.20;;;;;;;0.00;100.00;59042.03;10393415;28;20079;-75
2023/03/28 09:10:30;;;;;;;9.20;5.22;;;;;;;0.00;100.00;59042.03;10395999;28;20024;-75
2023/03/28 09:15:44;;;;;;;8.48;6.05;;;;;;;0.00;100.00;59042.03;10392640;28;20037;-74
2023/03/28 09:21:00;;;;;;;6.30;5.30;;;;;;;0.00;100.00;59042.03;10398182;28;20590;-74
2023/03/28 09:26:09;;;;;;;8.20;4.90;;;;;;;0.00;100.00;59042.03;10400179;28;20029;-74
2023/03/28 09:31:13;;;;;;;8.55;6.18;;;;;;;0.00;100.00;59042.03;10399252;28;20024;-73
2023/03/28 09:36:22;;;;;;;12.95;6.85;;;;;;;0.00;100.00;59042.03;10394884;28;20026;-75
2023/03/28 09:41:53;;;;;;;7.07;5.18;;;;;;;0.00;100.00;59042.03;10399252;28;20033;-74
2023/03/28 09:46:56;;;;;;;9.50;4.90;;;;;;;0.00;100.00;59042.03;10395923;28;20041;-74
2023/03/28 09:51:56;;;;;;;7.38;5.70;;;;;;;0.00;100.00;59042.03;10396923;28;20684;-74
2023/03/28 09:57:02;;;;;;;10.35;6.82;;;;;;;0.00;100.00;59042.03;10395408;28;20025;-75
2023/03/28 10:02:03;;;;;;;6.65;5.50;;;;;;;0.00;100.00;59042.03;10391723;28;20033;-74
2023/03/28 10:07:10;;;;;;;8.25;6.15;;;;;;;0.00;100.00;59042.03;10392744;28;20456;-74
2023/03/28 10:12:20;;;;;;;9.38;6.03;;;;;;;0.00;100.00;59042.03;10399898;28;20039;-74
2023/03/28 10:17:28;;;;;;;9.45;5.20;;;;;;;0.00;100.00;59042.03;10393002;28;20499;-74
2023/03/28 10:22:34;;;;;;;10.20;5.07;;;;;;;0.00;100.00;59042.03;10398491;28;20435;-74
2023/03/28 10:27:37;;;;;;;5.25;4.70;;;;;;;0.00;100.00;59042.03;10402232;28;20021;-74
2023/03/28 10:32:37;;;;;;;7.75;4.50;;;;;;;0.00;100.00;59042.03;10407142;28;20403;-74
2023/03/28 10:37:41;;;;;;;7.65;4.65;;;;;;;0.00;100.00;59042.03;10402120;28;20028;-74
2023/03/28 10:42:43;;;;;;;5.85;4.20;;;;;;;0.00;100.00;59042.03;10403444;28;20078;-75
2023/03/28 10:47:44;;;;;;;8.75;5.07;;;;;;;0.00;100.00;59042.03;10406771;28;20052;-75
2023/03/28 10:53:09;;;;;;;8.43;3.88;;;;;;;0.00;100.00;59042.03;10404907;28;20029;-75
2023/03/28 10:58:36;;;;;;;5.75;4.50;;;;;;;0.00;100.00;59042.03;10402914;28;20021;-75
2023/03/28 11:04:13;;;;;;;6.47;3.92;;;;;;;0.00;100.00;59042.03;10402580;28;20573;-74
2023/03/28 11:09:45;;;;;;;5.05;3.72;;;;;;;0.00;100.00;59042.03;10400242;28;20036;-74
2023/03/28 11:15:27;;;;;;;5.30;3.33;;;;;;;0.00;100.00;59042.03;10403625;28;20435;-76
2023/03/28 11:20:41;;;;;;;4.75;3.45;;;;;;;0.00;100.00;59042.03;10402112;28;20025;-74
2023/03/28 11:25:52;;;;;;;4.72;2.90;;;;;;;0.00;100.00;59042.03;10404423;28;20198;-73
2023/03/28 11:30:56;;;;;;;4.72;3.53;;;;;;;0.00;100.00;59042.03;10400314;28;20117;-75
2023/03/28 11:36:03;;;;;;;7.70;4.70;;;;;;;0.00;100.00;59042.03;10401345;28;20056;-75
2023/03/28 11:41:13;;;;;;;6.03;3.55;;;;;;;0.00;100.00;59042.03;10405397;28;20480;-75
2023/03/28 11:46:23;;;;;;;5.50;3.65;;;;;;;0.00;100.00;59042.03;10405276;28;20076;-75
2023/03/28 11:51:40;;;;;;;9.98;4.40;;;;;;;0.00;100.00;59042.03;10403866;28;20029;-74
2023/03/28 11:57:11;;;;;;;6.95;4.15;;;;;;;0.00;100.00;59042.03;10400534;28;20029;-74
2023/03/28 12:02:30;;;;;;;8.52;3.75;;;;;;;0.00;100.00;59042.03;10400080;28;20025;-75
2023/03/28 12:07:30;;;;;;;;;;;;;;;0.00;100.00;59042.03;10400397;28;20029;-74
2023/03/28 12:12:34;;;;;;;6.53;3.90;;;;;;;0.00;100.00;59042.03;10401214;28;20319;-73
2023/03/28 12:17:40;;;;;;;7.85;4.30;;;;;;;0.00;100.00;59042.03;10402585;28;20128;-74
2023/03/28 12:22:51;;;;;;;8.20;4.13;;;;;;;0.00;100.00;59042.03;10399997;28;20025;-75
2023/03/28 12:28:00;;;;;;;4.60;3.13;;;;;;;0.00;100.00;59042.03;10384872;28;20041;-76
2023/03/28 12:33:35;;;;;;;5.07;2.85;;;;;;;0.00;100.00;59042.03;10392789;28;20508;-75
2023/03/28 12:38:46;;;;;;;10.60;3.33;;;;;;;0.00;100.00;59042.03;10394861;28;20017;-76
2023/03/28 12:43:54;;;;;;;5.22;3.35;;;;;;;0.00;100.00;59042.03;10395293;28;20040;-76
2023/03/28 12:49:03;;;;;;;4.03;3.60;;;;;;;0.00;100.00;59042.03;10388561;28;20793;-75
2023/03/28 12:54:15;;;;;;;3.67;2.38;;;;;;;0.00;100.00;59042.03;10390128;28;20067;-75
2023/03/28 12:59:38;;;;;;;7.65;3.20;;;;;;;0.00;100.00;59042.03;10392264;28;20540;-74
2023/03/28 13:04:57;;;;;;;9.45;3.03;;;;;;;0.00;100.00;59042.03;10390562;28;20108;-75
2023/03/28 13:10:05;;;;;;;7.95;4.30;;;;;;;0.00;100.00;59042.03;10390268;28;20029;-74
2023/03/28 13:15:12;;;;;;;6.30;3.17;;;;;;;0.00;100.00;59042.03;10390789;28;20037;-75
2023/03/28 13:20:15;;;;;;;8.75;3.45;;;;;;;0.00;100.00;59042.03;10393999;28;20032;-72
2023/03/28 13:25:19;;;;;;;2.45;2.13;;;;;;;0.00;100.00;59042.03;10386985;28;20072;-75
2023/03/28 13:30:23;;;;;;;5.97;3.00;;;;;;;0.00;100.00;59042.03;10388947;28;20152;-75
2023/03/28 13:35:59;;;;;;;8.07;4.00;;;;;;;0.00;100.00;59042.03;10391383;28;20124;-75
2023/03/28 13:41:08;;;;;;;3.47;3.03;;;;;;;0.00;100.00;59042.03;10383713;28;20097;-75
2023/03/28 13:46:18;;;;;;;4.95;2.65;;;;;;;0.00;100.00;59042.03;10391516;28;20053;-75
2023/03/28 13:51:27;;;;;;;5.15;3.08;;;;;;;0.00;100.00;59042.03;10392774;28;20376;-74
2023/03/28 13:56:31;;;;;;;4.57;2.70;;;;;;;0.00;100.00;59042.03;10391437;28;20025;-75
2023/03/28 14:01:53;;;;;;;9.25;3.17;;;;;;;0.00;100.00;59042.03;10407994;28;20506;-76
2023/03/28 14:06:55;;;;;;;2.70;2.50;;;;;;;0.00;100.00;59042.03;10399303;28;20530;-76
2023/03/28 14:11:57;;;;;;;5.82;3.17;;;;;;;0.00;100.00;59042.03;10398694;28;20548;-75
2023/03/28 14:17:02;;;;;;;6.22;3.10;;;;;;;0.00;100.00;59042.03;10398978;28;20077;-76
2023/03/28 14:22:06;;;;;;;2.88;2.28;;;;;;;0.00;100.00;59042.03;10397629;28;20102;-75
2023/03/28 14:27:12;;;;;;;3.63;1.98;;;;;;;0.00;100.00;59042.03;10394505;28;20040;-75
2023/03/28 14:32:30;;;;;;;4.32;2.45;;;;;;;0.00;100.00;59042.03;10400134;28;20121;-75
2023/03/28 14:37:31;;;;;;;3.47;2.95;;;;;;;0.00;100.00;59042.03;10398479;28;20041;-75
2023/03/28 14:42:32;;;;;;;3.33;2.60;;;;;;;0.00;100.00;59042.03;10399879;28;20107;-74
2023/03/28 14:47:32;;;;;;;15.75;3.58;;;;;;;0.00;100.00;59042.03;10416281;28;20303;-75
2023/03/28 14:52:35;;;;;;;3.03;2.50;;;;;;;0.00;100.00;59042.03;10398777;28;20061;-76
2023/03/28 14:57:36;;;;;;;4.00;2.50;;;;;;;0.00;100.00;59042.03;10398186;28;20043;-77
2023/03/28 15:02:38;;;;;;;3.25;2.60;;;;;;;0.00;100.00;59042.03;10397336;28;20036;-75
2023/03/28 15:07:41;;;;;;;4.47;2.60;;;;;;;0.00;100.00;59042.03;10398747;28;20143;-76
2023/03/28 15:12:46;;;;;;;5.72;2.80;;;;;;;0.00;100.00;59042.03;10392809;28;20033;-76
2023/03/28 15:17:48;;;;;;;5.65;2.75;;;;;;;0.00;100.00;59042.03;10398222;28;20427;-74
2023/03/28 15:22:53;;;;;;;6.05;3.70;;;;;;;0.00;100.00;59042.03;10397786;28;20135;-77
2023/03/28 15:28:01;;;;;;;2.42;1.95;;;;;;;0.00;100.00;59042.03;10394949;28;20029;-75
2023/03/28 15:33:05;;;;;;;3.60;2.38;;;;;;;0.00;100.00;59042.03;10395114;28;20021;-76
2023/03/28 15:38:19;;;;;;;8.40;2.90;;;;;;;0.00;100.00;59042.03;10396288;28;20036;-75
2023/03/28 15:43:28;;;;;;;4.20;3.05;;;;;;;0.00;100.00;59042.03;10396202;28;20040;-75
2023/03/28 15:48:36;;;;;;;7.20;2.75;;;;;;;0.00;100.00;59042.03;10391538;28;20531;-76
2023/03/28 15:53:40;;;;;;;4.07;3.03;;;;;;;0.00;100.00;59042.03;10395362;28;20416;-75
2023/03/28 15:58:43;;;;;;;8.27;3.33;;;;;;;0.00;100.00;59042.03;10414046;28;20084;-75
2023/03/28 16:03:43;;;;;;;4.82;2.70;;;;;;;0.00;100.00;59042.03;10392455;28;20030;-76
2023/03/28 16:09:05;;;;;;;6.70;3.40;;;;;;;0.00;100.00;59042.03;10393109;28;20047;-75
2023/03/28 16:14:20;;;;;;;5.43;3.17;;;;;;;0.00;100.00;59042.03;10392304;28;20025;-75
2023/03/28 16:19:31;;;;;;;5.70;3.10;;;;;;;0.00;100.00;59042.03;10394388;28;20036;-75
2023/03/28 16:24:33;;;;;;;3.95;3.03;;;;;;;0.00;100.00;59042.03;10394516;28;20040;-75
2023/03/28 16:29:33;;;;;;;3.97;2.70;;;;;;;0.00;100.00;59042.03;10398862;28;20025;-77
2023/03/28 16:34:34;;;;;;;5.47;2.75;;;;;;;0.00;100.00;59042.03;10390997;28;20030;-78
2023/03/28 16:39:36;;;;;;;4.32;2.60;;;;;;;0.00;100.00;59042.03;10391969;28;20027;-76
2023/03/28 16:44:36;;;;;;;4.95;2.40;;;;;;;0.00;100.00;59042.03;10391459;28;20785;-75
2023/03/28 16:49:37;;;;;;;4.22;2.42;;;;;;;0.00;100.00;59042.03;10384733;28;20092;-76
2023/03/28 16:54:37;;;;;;;4.47;2.20;;;;;;;0.00;100.00;59042.03;10393735;28;20529;-72
2023/03/28 16:59:39;;;;;;;3.05;2.50;;;;;;;0.00;100.00;59042.03;10391747;28;20904;-74
2023/03/28 17:04:40;;;;;;;5.15;2.72;;;;;;;0.00;100.00;59042.03;10378643;28;20033;-71
2023/03/28 17:09:41;;;;;;;5.22;2.83;;;;;;;0.00;100.00;59042.03;10394304;28;20065;-74
2023/03/28 17:14:42;;;;;;;5.40;3.10;;;;;;;0.00;100.00;59042.03;10384394;28;20861;-73
2023/03/28 17:19:42;;;;;;;9.02;4.10;;;;;;;0.00;100.00;59042.03;10388241;28;20638;-77
2023/03/28 17:24:45;;;;;;;14.02;4.22;;;;;;;0.00;100.00;59042.03;10383531;28;20440;-75
2023/03/28 17:29:45;;;;;;;8.93;3.42;;;;;;;0.00;100.00;59042.03;10395092;28;20098;-76
2023/03/28 17:34:46;;;;;;;3.95;3.17;;;;;;;0.00;100.00;59042.03;10394301;28;20033;-75
2023/03/28 17:39:47;;;;;;;5.22;3.67;;;;;;;0.00;100.00;59042.03;10398406;28;20059;-75
2023/03/28 17:44:48;;;;;;;6.10;3.35;;;;;;;0.00;100.00;59042.03;10392659;28;20816;-76
2023/03/28 17:49:48;;;;;;;8.70;4.40;;;;;;;0.00;100.00;59042.03;10394129;28;20037;-74
2023/03/28 17:54:49;;;;;;;8.60;2.45;;;;;;;0.00;100.00;59042.03;10393614;28;20038;-74
2023/03/28 17:59:50;;;;;;;6.15;3.00;;;;;;;0.00;100.00;59042.03;10397512;28;20021;-73
2023/03/28 18:04:51;;;;;;;3.10;2.05;;;;;;;0.00;100.00;59042.03;10398973;28;20051;-72
2023/03/28 18:09:52;;;;;;;3.67;2.50;;;;;;;0.00;100.00;59042.03;10400715;28;20025;-74
2023/03/28 18:14:52;;;;;;;2.13;1.92;;;;;;;0.00;100.00;59042.03;10396716;28;20487;-74
2023/03/28 18:19:52;;;;;;;3.27;1.47;;;;;;;0.00;100.00;59042.03;10403793;28;20098;-76
2023/03/28 18:24:53;;;;;;;2.90;2.03;;;;;;;0.00;100.00;59042.03;10402799;28;20279;-75
2023/03/28 18:29:54;;;;;;;2.00;1.65;;;;;;;0.00;100.00;59042.03;10398674;28;20427;-76
2023/03/28 18:34:54;;;;;;;8.27;1.92;;;;;;;0.00;100.00;59042.03;10400278;28;20032;-72
2023/03/28 18:39:55;;;;;;;3.83;2.05;;;;;;;0.00;100.00;59042.03;10403593;28;20491;-76
2023/03/28 18:44:55;;;;;;;2.53;1.98;;;;;;;0.00;100.00;59042.03;10398225;28;20033;-75
2023/03/28 18:49:57;;;;;;;5.75;2.50;;;;;;;0.00;100.00;59042.03;10398616;28;20122;-75
2023/03/28 18:54:57;;;;;;;3.88;2.38;;;;;;;0.00;100.00;59042.03;10409619;28;20034;-79
2023/03/28 18:59:58;;;;;;;3.47;2.22;;;;;;;0.00;100.00;59042.03;10399671;28;20022;-73
2023/03/28 19:04:58;;;;;;;4.35;2.63;;;;;;;0.00;100.00;59042.03;10402086;28;20080;-72
2023/03/28 19:09:58;;;;;;;2.07;1.47;;;;;;;0.00;100.00;59042.03;10396259;28;21610;-72
2023/03/28 19:14:59;;;;;;;9.85;1.90;;;;;;;0.00;100.00;59042.03;10400440;28;20283;-73
2023/03/28 19:20:04;;;;;;;3.80;1.70;;;;;;;0.00;100.00;59042.03;10395134;28;20025;-75
2023/03/28 19:25:06;;;;;;;2.33;1.70;;;;;;;0.00;100.00;59042.03;10397136;28;20306;-74
2023/03/28 19:30:08;;;;;;;2.97;1.23;;;;;;;0.00;100.00;59042.03;10409338;28;20504;-74
2023/03/28 19:35:09;;;;;;;4.15;1.48;;;;;;;0.00;100.00;59042.03;10393085;28;20048;-75
2023/03/28 19:40:15;;;;;;;2.63;1.50;;;;;;;0.00;100.00;59042.03;10397919;28;20021;-74
2023/03/28 19:45:16;;;;;;;3.20;1.55;;;;;;;0.00;100.00;59042.03;10399156;28;20020;-76
2023/03/28 19:50:17;;;;;;;3.08;1.77;;;;;;;0.00;100.00;59042.03;10402176;28;20677;-75
2023/03/28 19:55:17;;;;;;;5.63;1.95;;;;;;;0.00;100.00;59042.03;10391307;28;20047;-73
2023/03/28 20:00:20;;;;;;;2.15;1.65;;;;;;;0.00;100.00;59042.03;10394572;28;20143;-76
2023/03/28 20:05:20;;;;;;;2.25;1.13;;;;;;;0.00;100.00;59042.03;10405398;28;20842;-75
2023/03/28 20:10:20;;;;;;;2.45;1.80;;;;;;;0.00;100.00;59042.03;10392639;28;20041;-75
2023/03/28 20:15:21;;;;;;;1.90;1.70;;;;;;;0.00;100.00;59042.03;10393569;28;20032;-74
2023/03/28 20:20:22;;;;;;;10.48;2.50;;;;;;;0.00;100.00;59042.03;10401188;28;20381;-74
2023/03/28 20:25:26;;;;;;;2.67;1.30;;;;;;;0.00;100.00;59042.03;10408562;28;20021;-79
2023/03/28 20:30:27;;;;;;;5.93;1.50;;;;;;;0.00;100.00;59042.03;10401482;28;20742;-76
2023/03/28 20:35:28;;;;;;;4.05;1.45;;;;;;;0.00;100.00;59042.03;10399270;28;20515;-76
2023/03/28 20:40:28;;;;;;;0.98;0.95;;;;;;;0.00;100.00;59042.03;10403846;28;20020;-76
2023/03/28 20:45:29;;;;;;;4.70;1.90;;;;;;;0.00;100.00;59042.03;10403403;28;20044;-75
2023/03/28 20:50:40;;;;;;;3.55;1.73;;;;;;;0.00;100.00;59042.03;10406824;28;20029;-73
2023/03/28 20:55:42;;;;;;;2.40;2.20;;;;;;;0.00;100.00;59042.03;10397869;28;20191;-74
2023/03/28 21:00:45;;;;;;;3.50;2.42;;;;;;;0.00;100.00;59042.03;10398839;28;20013;-77
2023/03/28 21:05:46;;;;;;;3.80;2.25;;;;;;;0.00;100.00;59042.03;10396678;28;20021;-78
2023/03/28 21:10:52;;;;;;;4.28;2.55;;;;;;;0.00;100.00;59042.03;10398244;28;20026;-77
2023/03/28 21:15:52;;;;;;;5.63;2.70;;;;;;;0.00;100.00;59042.03;10388882;28;20031;-77
2023/03/28 21:20:53;;;;;;;6.40;3.10;;;;;;;0.00;100.00;59042.03;10395639;28;20465;-77
2023/03/28 21:25:53;;;;;;;6.05;2.50;;;;;;;0.00;100.00;59042.03;10400176;28;20264;-76
2023/03/28 21:31:14;;;;;;;2.13;1.93;;;;;;;0.00;100.00;59042.03;10401676;28;20667;-77
2023/03/28 21:36:17;;;;;;;7.25;3.40;;;;;;;0.00;100.00;59042.03;10390588;28;20855;-77
2023/03/28 21:41:17;;;;;;;5.18;3.58;;;;;;;0.00;100.00;59042.03;10401458;28;20473;-77
2023/03/28 21:46:18;;;;;;;6.50;2.88;;;;;;;0.00;100.00;59042.03;10391835;28;20698;-77
2023/03/28 21:51:18;;;;;;;3.63;2.95;;;;;;;0.00;100.00;59042.03;10396318;28;20041;-77
2023/03/28 21:56:20;;;;;;;6.93;3.83;;;;;;;0.00;100.00;59042.03;10397112;28;20119;-78
2023/03/28 22:01:20;;;;;;;3.60;3.10;;;;;;;0.00;100.00;59042.03;10397817;28;20033;-77
2023/03/28 22:06:21;;;;;;;6.38;3.92;;;;;;;0.00;100.00;59042.03;10398928;28;20486;-78
2023/03/28 22:11:26;;;;;;;7.03;3.40;;;;;;;0.00;100.00;59042.03;10402821;28;20080;-78
2023/03/28 22:16:36;;;;;;;4.40;4.00;;;;;;;0.00;100.00;59042.03;10393480;28;20060;-77
2023/03/28 22:21:36;;;;;;;9.18;4.95;;;;;;;0.00;100.00;59042.03;10407689;28;20479;-78
2023/03/28 22:26:39;;;;;;;6.22;4.65;;;;;;;0.00;100.00;59042.03;10405309;28;20341;-77
2023/03/28 22:31:39;;;;;;;4.30;3.88;;;;;;;0.00;100.00;59042.03;10403930;28;20029;-76
2023/03/28 22:36:41;;;;;;;4.72;4.30;;;;;;;0.00;100.00;59042.03;10397473;28;20037;-77
2023/03/28 22:41:44;;;;;;;10.55;4.38;;;;;;;0.00;100.00;59042.03;10405220;28;20475;-76
2023/03/28 22:46:45;;;;;;;5.03;4.53;;;;;;;0.00;100.00;59042.03;10403468;28;20049;-75
2023/03/28 22:51:45;;;;;;;4.10;3.70;;;;;;;0.00;100.00;59042.03;10401030;28;20043;-77
2023/03/28 22:56:46;;;;;;;5.38;3.88;;;;;;;0.00;100.00;59042.03;10400643;28;20990;-76
2023/03/28 23:01:47;;;;;;;5.32;4.55;;;;;;;0.00;100.00;59042.03;10403859;28;20025;-77
2023/03/28 23:06:49;;;;;;;9.63;4.93;;;;;;;0.00;100.00;59042.03;10401934;28;20032;-77
2023/03/28 23:11:50;;;;;;;7.03;5.13;;;;;;;0.00;100.00;59042.03;10403350;28;20040;-77
2023/03/28 23:16:51;;;;;;;4.18;3.47;;;;;;;0.00;100.00;59042.03;10397479;28;20029;-76
2023/03/28 23:21:53;;;;;;;11.75;4.72;;;;;;;0.00;100.00;59042.03;10398924;28;20766;-77
2023/03/28 23:26:55;;;;;;;6.45;4.38;;;;;;;0.00;100.00;59042.03;10403669;28;20116;-77
2023/03/28 23:31:55;;;;;;;5.82;5.10;;;;;;;0.00;100.00;59042.03;10397773;28;20033;-77
2023/03/28 23:36:56;;;;;;;9.00;4.50;;;;;;;0.00;100.00;59042.03;10409077;28;20024;-76